sensor_id;sensor_type;location;lat;lon;timestamp;P1;durP1;ratioP1;P2;durP2;ratioP2
42036;SDS011;30340;52.004;5.908;2023-05-08T00:01:28;12.20;;;10.90;;
42036;SDS011;30340;52.004;5.908;2023-05-08T00:03:57;11.73;;;9.65;;
42036;SDS011;30340;52.004;5.908;2023-05-08T00:06:22;12.25;;;10.82;;
42036;SDS011;30340;52.004;5.908;2023-05-08T00:08:48;12.48;;;10.43;;
42036;SDS011;30340;52.004;5.908;2023-05-08T00:11:13;11.80;;;10.10;;
42036;SDS011;30340;52.004;5.908;2023-05-08T00:13:39;12.18;;;10.90;;
42036;SDS011;30340;52.004;5.908;2023-05-08T00:16:06;12.63;;;10.85;;
42036;SDS011;30340;52.004;5.908;2023-05-08T00:18:33;13.38;;;11.98;;
42036;SDS011;30340;52.004;5.908;2023-05-08T00:20:59;12.98;;;11.30;;
42036;SDS011;30340;52.004;5.908;2023-05-08T00:23:25;12.00;;;10.70;;
42036;SDS011;30340;52.004;5.908;2023-05-08T00:25:51;12.20;;;10.77;;
42036;SDS011;30340;52.004;5.908;2023-05-08T00:28:16;13.43;;;11.20;;
42036;SDS011;30340;52.004;5.908;2023-05-08T00:30:42;12.00;;;10.55;;
42036;SDS011;30340;52.004;5.908;2023-05-08T00:33:08;14.05;;;12.02;;
42036;SDS011;30340;52.004;5.908;2023-05-08T00:35:34;12.20;;;10.90;;
42036;SDS011;30340;52.004;5.908;2023-05-08T00:37:59;13.55;;;12.05;;
42036;SDS011;30340;52.004;5.908;2023-05-08T00:40:25;13.85;;;12.43;;
42036;SDS011;30340;52.004;5.908;2023-05-08T00:42:51;13.93;;;12.10;;
42036;SDS011;30340;52.004;5.908;2023-05-08T00:45:17;15.25;;;12.95;;
42036;SDS011;30340;52.004;5.908;2023-05-08T00:47:42;14.65;;;12.63;;
42036;SDS011;30340;52.004;5.908;2023-05-08T00:50:08;16.10;;;13.73;;
42036;SDS011;30340;52.004;5.908;2023-05-08T00:52:34;15.02;;;13.40;;
42036;SDS011;30340;52.004;5.908;2023-05-08T00:55:01;13.52;;;12.13;;
42036;SDS011;30340;52.004;5.908;2023-05-08T00:57:29;12.27;;;10.98;;
42036;SDS011;30340;52.004;5.908;2023-05-08T00:59:58;11.85;;;10.35;;
42036;SDS011;30340;52.004;5.908;2023-05-08T01:02:25;12.10;;;10.75;;
42036;SDS011;30340;52.004;5.908;2023-05-08T01:04:52;13.02;;;11.43;;
42036;SDS011;30340;52.004;5.908;2023-05-08T01:07:18;12.07;;;10.75;;
42036;SDS011;30340;52.004;5.908;2023-05-08T01:09:44;14.38;;;11.98;;
42036;SDS011;30340;52.004;5.908;2023-05-08T01:17:26;11.80;;;10.45;;
42036;SDS011;30340;52.004;5.908;2023-05-08T01:34:00;13.57;;;12.07;;
42036;SDS011;30340;52.004;5.908;2023-05-08T01:36:34;13.20;;;11.68;;
42036;SDS011;30340;52.004;5.908;2023-05-08T01:41:38;14.52;;;12.98;;
42036;SDS011;30340;52.004;5.908;2023-05-08T01:44:17;14.45;;;12.93;;
42036;SDS011;30340;52.004;5.908;2023-05-08T01:46:46;14.40;;;12.60;;
42036;SDS011;30340;52.004;5.908;2023-05-08T01:49:27;14.95;;;13.25;;
42036;SDS011;30340;52.004;5.908;2023-05-08T01:51:59;18.10;;;15.82;;
42036;SDS011;30340;52.004;5.908;2023-05-08T01:54:33;18.08;;;14.80;;
42036;SDS011;30340;52.004;5.908;2023-05-08T01:57:05;15.57;;;13.45;;
42036;SDS011;30340;52.004;5.908;2023-05-08T01:59:33;15.18;;;13.50;;
42036;SDS011;30340;52.004;5.908;2023-05-08T02:02:01;15.75;;;13.32;;
42036;SDS011;30340;52.004;5.908;2023-05-08T02:04:27;15.60;;;12.90;;
42036;SDS011;30340;52.004;5.908;2023-05-08T02:06:54;15.30;;;12.63;;
42036;SDS011;30340;52.004;5.908;2023-05-08T02:09:21;14.32;;;12.63;;
42036;SDS011;30340;52.004;5.908;2023-05-08T02:11:48;17.42;;;14.40;;
42036;SDS011;30340;52.004;5.908;2023-05-08T02:14:15;13.32;;;11.90;;
42036;SDS011;30340;52.004;5.908;2023-05-08T02:16:45;16.08;;;13.75;;
42036;SDS011;30340;52.004;5.908;2023-05-08T02:19:12;15.30;;;13.45;;
42036;SDS011;30340;52.004;5.908;2023-05-08T02:21:40;13.85;;;11.57;;
42036;SDS011;30340;52.004;5.908;2023-05-08T02:24:06;15.45;;;13.85;;
42036;SDS011;30340;52.004;5.908;2023-05-08T02:26:33;14.45;;;12.38;;
42036;SDS011;30340;52.004;5.908;2023-05-08T02:29:00;16.23;;;13.38;;
42036;SDS011;30340;52.004;5.908;2023-05-08T02:31:27;14.88;;;13.30;;
42036;SDS011;30340;52.004;5.908;2023-05-08T02:33:54;15.40;;;11.77;;
42036;SDS011;30340;52.004;5.908;2023-05-08T02:36:21;15.13;;;13.32;;
42036;SDS011;30340;52.004;5.908;2023-05-08T02:38:49;14.23;;;12.73;;
42036;SDS011;30340;52.004;5.908;2023-05-08T02:41:18;15.18;;;13.57;;
42036;SDS011;30340;52.004;5.908;2023-05-08T02:43:46;14.93;;;12.77;;
42036;SDS011;30340;52.004;5.908;2023-05-08T02:46:19;15.50;;;13.82;;
42036;SDS011;30340;52.004;5.908;2023-05-08T02:49:02;15.68;;;13.98;;
42036;SDS011;30340;52.004;5.908;2023-05-08T02:52:17;17.60;;;15.38;;
42036;SDS011;30340;52.004;5.908;2023-05-08T02:54:30;19.55;;;16.42;;
42036;SDS011;30340;52.004;5.908;2023-05-08T02:59:58;15.32;;;13.73;;
42036;SDS011;30340;52.004;5.908;2023-05-08T03:02:32;16.92;;;15.18;;
42036;SDS011;30340;52.004;5.908;2023-05-08T03:05:05;13.85;;;12.32;;
42036;SDS011;30340;52.004;5.908;2023-05-08T03:07:44;13.30;;;11.55;;
42036;SDS011;30340;52.004;5.908;2023-05-08T03:10:14;16.27;;;14.57;;
42036;SDS011;30340;52.004;5.908;2023-05-08T03:12:42;15.45;;;13.80;;
42036;SDS011;30340;52.004;5.908;2023-05-08T03:15:13;16.20;;;14.43;;
42036;SDS011;30340;52.004;5.908;2023-05-08T03:17:45;17.98;;;15.23;;
42036;SDS011;30340;52.004;5.908;2023-05-08T03:20:13;15.93;;;14.32;;
42036;SDS011;30340;52.004;5.908;2023-05-08T03:22:41;17.40;;;15.48;;
42036;SDS011;30340;52.004;5.908;2023-05-08T03:25:08;16.67;;;14.98;;
42036;SDS011;30340;52.004;5.908;2023-05-08T03:27:34;17.00;;;15.20;;
42036;SDS011;30340;52.004;5.908;2023-05-08T03:30:01;16.40;;;14.30;;
42036;SDS011;30340;52.004;5.908;2023-05-08T03:32:28;16.58;;;14.88;;
42036;SDS011;30340;52.004;5.908;2023-05-08T03:34:57;15.23;;;13.15;;
42036;SDS011;30340;52.004;5.908;2023-05-08T03:37:23;15.63;;;13.10;;
42036;SDS011;30340;52.004;5.908;2023-05-08T03:39:54;17.05;;;15.30;;
42036;SDS011;30340;52.004;5.908;2023-05-08T03:42:21;15.60;;;13.88;;
42036;SDS011;30340;52.004;5.908;2023-05-08T03:44:51;12.13;;;10.68;;
42036;SDS011;30340;52.004;5.908;2023-05-08T03:47:18;14.25;;;12.65;;
42036;SDS011;30340;52.004;5.908;2023-05-08T03:49:46;14.43;;;12.75;;
42036;SDS011;30340;52.004;5.908;2023-05-08T03:52:13;14.27;;;12.20;;
42036;SDS011;30340;52.004;5.908;2023-05-08T03:54:40;12.63;;;11.32;;
42036;SDS011;30340;52.004;5.908;2023-05-08T03:57:06;11.95;;;10.68;;
42036;SDS011;30340;52.004;5.908;2023-05-08T03:59:41;15.38;;;13.20;;
42036;SDS011;30340;52.004;5.908;2023-05-08T04:05:09;14.07;;;12.68;;
42036;SDS011;30340;52.004;5.908;2023-05-08T04:07:52;15.82;;;14.20;;
42036;SDS011;30340;52.004;5.908;2023-05-08T04:10:29;17.63;;;15.77;;
42036;SDS011;30340;52.004;5.908;2023-05-08T04:12:59;15.43;;;13.82;;
42036;SDS011;30340;52.004;5.908;2023-05-08T04:15:32;18.05;;;16.15;;
42036;SDS011;30340;52.004;5.908;2023-05-08T04:18:08;17.48;;;15.68;;
42036;SDS011;30340;52.004;5.908;2023-05-08T04:20:39;17.65;;;15.80;;
42036;SDS011;30340;52.004;5.908;2023-05-08T04:23:08;18.13;;;15.15;;
42036;SDS011;30340;52.004;5.908;2023-05-08T04:25:39;15.93;;;14.18;;
42036;SDS011;30340;52.004;5.908;2023-05-08T04:28:06;14.13;;;12.73;;
42036;SDS011;30340;52.004;5.908;2023-05-08T04:30:32;15.30;;;13.30;;
42036;SDS011;30340;52.004;5.908;2023-05-08T04:32:58;13.73;;;12.32;;
42036;SDS011;30340;52.004;5.908;2023-05-08T04:35:27;16.33;;;14.65;;
42036;SDS011;30340;52.004;5.908;2023-05-08T04:37:53;18.17;;;14.23;;
42036;SDS011;30340;52.004;5.908;2023-05-08T04:40:20;15.13;;;13.63;;
42036;SDS011;30340;52.004;5.908;2023-05-08T04:42:45;14.30;;;12.63;;
42036;SDS011;30340;52.004;5.908;2023-05-08T04:45:11;14.52;;;13.02;;
42036;SDS011;30340;52.004;5.908;2023-05-08T04:47:37;13.27;;;11.88;;
42036;SDS011;30340;52.004;5.908;2023-05-08T04:50:03;14.15;;;12.63;;
42036;SDS011;30340;52.004;5.908;2023-05-08T04:52:28;14.70;;;12.98;;
42036;SDS011;30340;52.004;5.908;2023-05-08T04:54:54;12.82;;;11.35;;
42036;SDS011;30340;52.004;5.908;2023-05-08T04:57:20;14.65;;;13.15;;
42036;SDS011;30340;52.004;5.908;2023-05-08T04:59:45;15.50;;;13.90;;
42036;SDS011;30340;52.004;5.908;2023-05-08T05:02:11;14.68;;;13.18;;
42036;SDS011;30340;52.004;5.908;2023-05-08T05:04:36;14.10;;;12.60;;
42036;SDS011;30340;52.004;5.908;2023-05-08T05:07:02;13.82;;;12.43;;
42036;SDS011;30340;52.004;5.908;2023-05-08T05:09:28;12.57;;;11.27;;
42036;SDS011;30340;52.004;5.908;2023-05-08T05:11:53;15.45;;;13.30;;
42036;SDS011;30340;52.004;5.908;2023-05-08T05:14:19;13.13;;;11.25;;
42036;SDS011;30340;52.004;5.908;2023-05-08T05:16:45;13.90;;;12.50;;
42036;SDS011;30340;52.004;5.908;2023-05-08T05:19:11;12.55;;;11.27;;
42036;SDS011;30340;52.004;5.908;2023-05-08T05:21:37;13.25;;;11.18;;
42036;SDS011;30340;52.004;5.908;2023-05-08T05:24:03;12.80;;;11.40;;
42036;SDS011;30340;52.004;5.908;2023-05-08T05:26:29;14.10;;;12.70;;
42036;SDS011;30340;52.004;5.908;2023-05-08T05:28:55;12.68;;;11.38;;
42036;SDS011;30340;52.004;5.908;2023-05-08T05:31:20;15.07;;;13.57;;
42036;SDS011;30340;52.004;5.908;2023-05-08T05:33:46;13.30;;;12.00;;
42036;SDS011;30340;52.004;5.908;2023-05-08T05:36:11;14.00;;;12.45;;
42036;SDS011;30340;52.004;5.908;2023-05-08T05:38:37;15.18;;;13.57;;
42036;SDS011;30340;52.004;5.908;2023-05-08T05:41:03;12.88;;;11.57;;
42036;SDS011;30340;52.004;5.908;2023-05-08T05:43:28;12.30;;;11.10;;
42036;SDS011;30340;52.004;5.908;2023-05-08T05:45:54;11.50;;;10.30;;
42036;SDS011;30340;52.004;5.908;2023-05-08T05:51:10;14.02;;;12.63;;
42036;SDS011;30340;52.004;5.908;2023-05-08T05:53:36;12.32;;;11.05;;
42036;SDS011;30340;52.004;5.908;2023-05-08T05:56:01;11.77;;;10.57;;
42036;SDS011;30340;52.004;5.908;2023-05-08T05:58:27;10.80;;;9.70;;
42036;SDS011;30340;52.004;5.908;2023-05-08T06:00:52;11.32;;;10.15;;
42036;SDS011;30340;52.004;5.908;2023-05-08T06:03:18;13.23;;;11.70;;
42036;SDS011;30340;52.004;5.908;2023-05-08T06:05:47;13.30;;;11.90;;
42036;SDS011;30340;52.004;5.908;2023-05-08T06:08:13;12.68;;;10.98;;
42036;SDS011;30340;52.004;5.908;2023-05-08T06:10:40;13.07;;;11.65;;
42036;SDS011;30340;52.004;5.908;2023-05-08T06:13:05;12.63;;;11.35;;
42036;SDS011;30340;52.004;5.908;2023-05-08T06:15:33;13.77;;;12.40;;
42036;SDS011;30340;52.004;5.908;2023-05-08T06:17:58;15.23;;;13.55;;
42036;SDS011;30340;52.004;5.908;2023-05-08T06:20:24;14.15;;;12.68;;
42036;SDS011;30340;52.004;5.908;2023-05-08T06:22:52;14.95;;;13.27;;
42036;SDS011;30340;52.004;5.908;2023-05-08T06:25:18;18.60;;;15.77;;
42036;SDS011;30340;52.004;5.908;2023-05-08T06:27:43;15.38;;;13.68;;
42036;SDS011;30340;52.004;5.908;2023-05-08T06:30:09;15.63;;;13.13;;
42036;SDS011;30340;52.004;5.908;2023-05-08T06:32:36;13.45;;;10.70;;
42036;SDS011;30340;52.004;5.908;2023-05-08T06:35:02;22.38;;;17.42;;
42036;SDS011;30340;52.004;5.908;2023-05-08T06:37:29;21.73;;;16.85;;
42036;SDS011;30340;52.004;5.908;2023-05-08T06:39:56;24.70;;;18.77;;
42036;SDS011;30340;52.004;5.908;2023-05-08T06:42:22;21.05;;;16.55;;
42036;SDS011;30340;52.004;5.908;2023-05-08T06:44:47;20.58;;;15.63;;
42036;SDS011;30340;52.004;5.908;2023-05-08T06:47:14;22.75;;;16.42;;
42036;SDS011;30340;52.004;5.908;2023-05-08T06:49:40;25.50;;;19.15;;
42036;SDS011;30340;52.004;5.908;2023-05-08T06:52:06;26.42;;;19.55;;
42036;SDS011;30340;52.004;5.908;2023-05-08T06:54:31;19.65;;;14.52;;
42036;SDS011;30340;52.004;5.908;2023-05-08T06:56:57;24.17;;;18.73;;
42036;SDS011;30340;52.004;5.908;2023-05-08T06:59:22;21.02;;;15.80;;
42036;SDS011;30340;52.004;5.908;2023-05-08T07:01:48;23.02;;;17.75;;
42036;SDS011;30340;52.004;5.908;2023-05-08T07:04:14;18.38;;;13.70;;
42036;SDS011;30340;52.004;5.908;2023-05-08T07:06:39;22.40;;;16.70;;
42036;SDS011;30340;52.004;5.908;2023-05-08T07:09:05;20.70;;;16.98;;
42036;SDS011;30340;52.004;5.908;2023-05-08T07:11:30;20.90;;;15.07;;
42036;SDS011;30340;52.004;5.908;2023-05-08T07:13:56;21.40;;;16.92;;
42036;SDS011;30340;52.004;5.908;2023-05-08T07:16:22;19.65;;;16.05;;
42036;SDS011;30340;52.004;5.908;2023-05-08T07:18:47;22.95;;;17.33;;
42036;SDS011;30340;52.004;5.908;2023-05-08T07:21:13;20.13;;;15.38;;
42036;SDS011;30340;52.004;5.908;2023-05-08T07:23:39;18.55;;;14.75;;
42036;SDS011;30340;52.004;5.908;2023-05-08T07:26:05;18.73;;;15.15;;
42036;SDS011;30340;52.004;5.908;2023-05-08T07:28:32;20.25;;;15.95;;
42036;SDS011;30340;52.004;5.908;2023-05-08T07:30:57;21.67;;;16.75;;
42036;SDS011;30340;52.004;5.908;2023-05-08T07:33:23;21.75;;;16.48;;
42036;SDS011;30340;52.004;5.908;2023-05-08T07:35:48;22.10;;;16.88;;
42036;SDS011;30340;52.004;5.908;2023-05-08T07:38:14;22.95;;;17.00;;
42036;SDS011;30340;52.004;5.908;2023-05-08T07:40:39;21.38;;;16.98;;
42036;SDS011;30340;52.004;5.908;2023-05-08T07:43:05;22.27;;;16.50;;
42036;SDS011;30340;52.004;5.908;2023-05-08T07:45:31;21.52;;;17.77;;
42036;SDS011;30340;52.004;5.908;2023-05-08T07:47:57;21.58;;;17.55;;
42036;SDS011;30340;52.004;5.908;2023-05-08T07:50:23;21.08;;;16.40;;
42036;SDS011;30340;52.004;5.908;2023-05-08T07:52:49;20.05;;;15.68;;
42036;SDS011;30340;52.004;5.908;2023-05-08T07:55:15;22.23;;;17.10;;
42036;SDS011;30340;52.004;5.908;2023-05-08T07:57:42;20.25;;;16.15;;
42036;SDS011;30340;52.004;5.908;2023-05-08T08:00:11;25.02;;;18.48;;
42036;SDS011;30340;52.004;5.908;2023-05-08T08:02:38;21.00;;;16.52;;
42036;SDS011;30340;52.004;5.908;2023-05-08T08:05:05;24.67;;;18.30;;
42036;SDS011;30340;52.004;5.908;2023-05-08T08:07:30;24.23;;;18.95;;
42036;SDS011;30340;52.004;5.908;2023-05-08T08:09:59;21.58;;;17.10;;
42036;SDS011;30340;52.004;5.908;2023-05-08T08:12:25;21.83;;;16.60;;
42036;SDS011;30340;52.004;5.908;2023-05-08T08:14:51;22.85;;;18.48;;
42036;SDS011;30340;52.004;5.908;2023-05-08T08:17:17;26.77;;;21.42;;
42036;SDS011;30340;52.004;5.908;2023-05-08T08:19:43;26.50;;;19.75;;
42036;SDS011;30340;52.004;5.908;2023-05-08T08:22:08;27.77;;;21.08;;
42036;SDS011;30340;52.004;5.908;2023-05-08T08:24:34;24.70;;;18.90;;
42036;SDS011;30340;52.004;5.908;2023-05-08T08:26:59;25.58;;;19.52;;
42036;SDS011;30340;52.004;5.908;2023-05-08T08:29:25;22.17;;;16.98;;
42036;SDS011;30340;52.004;5.908;2023-05-08T08:31:51;23.33;;;17.05;;
42036;SDS011;30340;52.004;5.908;2023-05-08T08:34:16;23.45;;;18.30;;
42036;SDS011;30340;52.004;5.908;2023-05-08T08:36:42;23.17;;;18.02;;
42036;SDS011;30340;52.004;5.908;2023-05-08T08:39:08;25.25;;;19.10;;
42036;SDS011;30340;52.004;5.908;2023-05-08T08:41:33;24.20;;;18.80;;
42036;SDS011;30340;52.004;5.908;2023-05-08T08:43:59;23.85;;;18.17;;
42036;SDS011;30340;52.004;5.908;2023-05-08T08:46:25;29.58;;;22.35;;
42036;SDS011;30340;52.004;5.908;2023-05-08T08:48:52;33.08;;;23.30;;
42036;SDS011;30340;52.004;5.908;2023-05-08T08:51:27;27.63;;;20.77;;
42036;SDS011;30340;52.004;5.908;2023-05-08T08:54:05;30.60;;;23.27;;
42036;SDS011;30340;52.004;5.908;2023-05-08T08:56:33;33.55;;;24.88;;
42036;SDS011;30340;52.004;5.908;2023-05-08T08:59:02;27.75;;;20.83;;
42036;SDS011;30340;52.004;5.908;2023-05-08T09:01:28;25.13;;;18.17;;
42036;SDS011;30340;52.004;5.908;2023-05-08T09:03:56;30.33;;;22.45;;
42036;SDS011;30340;52.004;5.908;2023-05-08T09:06:22;24.92;;;19.10;;
42036;SDS011;30340;52.004;5.908;2023-05-08T09:08:48;26.73;;;19.85;;
42036;SDS011;30340;52.004;5.908;2023-05-08T09:11:14;23.17;;;18.08;;
42036;SDS011;30340;52.004;5.908;2023-05-08T09:13:40;27.05;;;19.95;;
42036;SDS011;30340;52.004;5.908;2023-05-08T09:16:06;25.98;;;18.67;;
42036;SDS011;30340;52.004;5.908;2023-05-08T09:18:31;23.15;;;16.48;;
42036;SDS011;30340;52.004;5.908;2023-05-08T09:20:57;25.38;;;19.90;;
42036;SDS011;30340;52.004;5.908;2023-05-08T09:23:25;22.95;;;18.17;;
42036;SDS011;30340;52.004;5.908;2023-05-08T09:25:50;22.80;;;18.17;;
42036;SDS011;30340;52.004;5.908;2023-05-08T09:30:51;20.00;;;14.38;;
42036;SDS011;30340;52.004;5.908;2023-05-08T09:33:17;31.67;;;23.25;;
42036;SDS011;30340;52.004;5.908;2023-05-08T09:35:44;23.92;;;19.17;;
42036;SDS011;30340;52.004;5.908;2023-05-08T09:38:31;30.48;;;22.80;;
42036;SDS011;30340;52.004;5.908;2023-05-08T09:41:05;26.88;;;19.70;;
42036;SDS011;30340;52.004;5.908;2023-05-08T09:43:35;22.83;;;19.02;;
42036;SDS011;30340;52.004;5.908;2023-05-08T09:48:47;27.50;;;19.77;;
42036;SDS011;30340;52.004;5.908;2023-05-08T09:51:20;26.67;;;20.05;;
42036;SDS011;30340;52.004;5.908;2023-05-08T09:53:48;26.73;;;21.15;;
42036;SDS011;30340;52.004;5.908;2023-05-08T09:56:34;27.52;;;21.80;;
42036;SDS011;30340;52.004;5.908;2023-05-08T09:59:25;29.40;;;21.83;;
42036;SDS011;30340;52.004;5.908;2023-05-08T10:01:52;22.80;;;17.40;;
42036;SDS011;30340;52.004;5.908;2023-05-08T10:04:37;26.50;;;18.92;;
42036;SDS011;30340;52.004;5.908;2023-05-08T10:07:03;26.00;;;20.70;;
42036;SDS011;30340;52.004;5.908;2023-05-08T10:09:29;21.00;;;17.67;;
42036;SDS011;30340;52.004;5.908;2023-05-08T10:11:54;21.10;;;16.83;;
42036;SDS011;30340;52.004;5.908;2023-05-08T10:14:23;22.70;;;18.83;;
42036;SDS011;30340;52.004;5.908;2023-05-08T10:16:50;21.63;;;17.38;;
42036;SDS011;30340;52.004;5.908;2023-05-08T10:19:17;21.63;;;16.27;;
42036;SDS011;30340;52.004;5.908;2023-05-08T10:21:51;19.65;;;15.32;;
42036;SDS011;30340;52.004;5.908;2023-05-08T10:24:18;21.65;;;18.38;;
42036;SDS011;30340;52.004;5.908;2023-05-08T10:26:55;25.00;;;20.33;;
42036;SDS011;30340;52.004;5.908;2023-05-08T10:29:46;19.27;;;16.60;;
42036;SDS011;30340;52.004;5.908;2023-05-08T10:32:18;22.02;;;16.95;;
42036;SDS011;30340;52.004;5.908;2023-05-08T10:34:45;21.50;;;17.92;;
42036;SDS011;30340;52.004;5.908;2023-05-08T10:37:15;31.00;;;26.02;;
42036;SDS011;30340;52.004;5.908;2023-05-08T10:39:41;26.23;;;20.58;;
42036;SDS011;30340;52.004;5.908;2023-05-08T10:42:09;17.83;;;15.10;;
42036;SDS011;30340;52.004;5.908;2023-05-08T10:44:37;23.83;;;19.48;;
42036;SDS011;30340;52.004;5.908;2023-05-08T10:47:18;25.10;;;21.08;;
42036;SDS011;30340;52.004;5.908;2023-05-08T10:52:43;24.65;;;20.80;;
42036;SDS011;30340;52.004;5.908;2023-05-08T10:55:18;28.42;;;23.23;;
42036;SDS011;30340;52.004;5.908;2023-05-08T11:03:17;21.52;;;18.77;;
42036;SDS011;30340;52.004;5.908;2023-05-08T11:05:44;18.63;;;15.52;;
42036;SDS011;30340;52.004;5.908;2023-05-08T11:08:14;19.13;;;17.13;;
42036;SDS011;30340;52.004;5.908;2023-05-08T11:15:59;19.30;;;17.27;;
42036;SDS011;30340;52.004;5.908;2023-05-08T11:18:25;20.52;;;17.98;;
42036;SDS011;30340;52.004;5.908;2023-05-08T11:20:58;20.95;;;18.67;;
42036;SDS011;30340;52.004;5.908;2023-05-08T11:23:36;19.08;;;17.02;;
42036;SDS011;30340;52.004;5.908;2023-05-08T11:26:03;18.42;;;16.33;;
42036;SDS011;30340;52.004;5.908;2023-05-08T11:28:37;19.10;;;17.10;;
42036;SDS011;30340;52.004;5.908;2023-05-08T11:31:03;20.27;;;18.08;;
42036;SDS011;30340;52.004;5.908;2023-05-08T11:33:30;18.00;;;16.02;;
42036;SDS011;30340;52.004;5.908;2023-05-08T11:38:35;19.20;;;17.05;;
42036;SDS011;30340;52.004;5.908;2023-05-08T11:41:21;26.88;;;24.08;;
42036;SDS011;30340;52.004;5.908;2023-05-08T11:46:22;27.90;;;25.05;;
42036;SDS011;30340;52.004;5.908;2023-05-08T11:48:57;31.83;;;28.53;;
42036;SDS011;30340;52.004;5.908;2023-05-08T11:51:23;24.13;;;21.52;;
42036;SDS011;30340;52.004;5.908;2023-05-08T11:53:49;21.45;;;19.23;;
42036;SDS011;30340;52.004;5.908;2023-05-08T11:56:15;20.40;;;18.27;;
42036;SDS011;30340;52.004;5.908;2023-05-08T11:58:41;20.05;;;17.90;;
42036;SDS011;30340;52.004;5.908;2023-05-08T12:01:06;23.00;;;20.67;;
42036;SDS011;30340;52.004;5.908;2023-05-08T12:03:32;24.67;;;22.02;;
42036;SDS011;30340;52.004;5.908;2023-05-08T12:05:58;25.17;;;22.08;;
42036;SDS011;30340;52.004;5.908;2023-05-08T12:08:24;25.70;;;22.90;;
42036;SDS011;30340;52.004;5.908;2023-05-08T12:10:54;24.70;;;21.83;;
42036;SDS011;30340;52.004;5.908;2023-05-08T12:13:21;24.83;;;22.23;;
42036;SDS011;30340;52.004;5.908;2023-05-08T12:15:50;20.85;;;18.48;;
42036;SDS011;30340;52.004;5.908;2023-05-08T12:18:21;24.23;;;21.58;;
42036;SDS011;30340;52.004;5.908;2023-05-08T12:21:05;30.27;;;26.95;;
42036;SDS011;30340;52.004;5.908;2023-05-08T12:23:31;23.65;;;21.13;;
42036;SDS011;30340;52.004;5.908;2023-05-08T12:25:57;23.25;;;20.88;;
42036;SDS011;30340;52.004;5.908;2023-05-08T12:28:24;24.08;;;21.58;;
42036;SDS011;30340;52.004;5.908;2023-05-08T12:30:50;32.35;;;29.05;;
42036;SDS011;30340;52.004;5.908;2023-05-08T12:33:16;25.00;;;22.30;;
42036;SDS011;30340;52.004;5.908;2023-05-08T12:35:43;23.30;;;20.90;;
42036;SDS011;30340;52.004;5.908;2023-05-08T12:38:09;25.65;;;22.95;;
42036;SDS011;30340;52.004;5.908;2023-05-08T12:40:42;23.88;;;21.40;;
42036;SDS011;30340;52.004;5.908;2023-05-08T12:43:09;25.20;;;22.58;;
42036;SDS011;30340;52.004;5.908;2023-05-08T12:45:36;29.10;;;25.42;;
42036;SDS011;30340;52.004;5.908;2023-05-08T12:48:04;26.85;;;24.02;;
42036;SDS011;30340;52.004;5.908;2023-05-08T12:50:34;24.23;;;21.73;;
42036;SDS011;30340;52.004;5.908;2023-05-08T12:53:04;20.75;;;18.60;;
42036;SDS011;30340;52.004;5.908;2023-05-08T12:55:32;28.77;;;25.77;;
42036;SDS011;30340;52.004;5.908;2023-05-08T13:00:33;25.55;;;22.95;;
42036;SDS011;30340;52.004;5.908;2023-05-08T13:03:08;26.42;;;23.73;;
42036;SDS011;30340;52.004;5.908;2023-05-08T13:05:35;27.10;;;24.20;;
42036;SDS011;30340;52.004;5.908;2023-05-08T13:08:05;26.75;;;24.00;;
42036;SDS011;30340;52.004;5.908;2023-05-08T13:10:51;24.05;;;21.52;;
42036;SDS011;30340;52.004;5.908;2023-05-08T13:13:18;26.25;;;23.58;;
42036;SDS011;30340;52.004;5.908;2023-05-08T13:15:45;32.50;;;29.17;;
42036;SDS011;30340;52.004;5.908;2023-05-08T13:18:11;29.20;;;26.10;;
42036;SDS011;30340;52.004;5.908;2023-05-08T13:20:37;28.58;;;25.67;;
42036;SDS011;30340;52.004;5.908;2023-05-08T13:23:04;23.88;;;21.40;;
42036;SDS011;30340;52.004;5.908;2023-05-08T13:25:29;31.70;;;28.30;;
42036;SDS011;30340;52.004;5.908;2023-05-08T13:27:56;30.02;;;26.65;;
42036;SDS011;30340;52.004;5.908;2023-05-08T13:30:22;33.40;;;29.90;;
42036;SDS011;30340;52.004;5.908;2023-05-08T13:32:48;28.83;;;25.88;;
42036;SDS011;30340;52.004;5.908;2023-05-08T13:35:14;31.70;;;28.38;;
42036;SDS011;30340;52.004;5.908;2023-05-08T13:37:40;27.77;;;24.85;;
42036;SDS011;30340;52.004;5.908;2023-05-08T13:40:06;23.83;;;21.25;;
42036;SDS011;30340;52.004;5.908;2023-05-08T13:42:32;29.67;;;26.58;;
42036;SDS011;30340;52.004;5.908;2023-05-08T13:44:57;26.67;;;23.98;;
42036;SDS011;30340;52.004;5.908;2023-05-08T13:47:23;32.72;;;29.23;;
42036;SDS011;30340;52.004;5.908;2023-05-08T13:49:49;30.30;;;27.30;;
42036;SDS011;30340;52.004;5.908;2023-05-08T13:52:15;20.95;;;18.80;;
42036;SDS011;30340;52.004;5.908;2023-05-08T13:54:40;25.55;;;22.90;;
42036;SDS011;30340;52.004;5.908;2023-05-08T13:57:06;21.88;;;19.52;;
42036;SDS011;30340;52.004;5.908;2023-05-08T13:59:32;21.98;;;19.77;;
42036;SDS011;30340;52.004;5.908;2023-05-08T14:01:58;21.25;;;19.00;;
42036;SDS011;30340;52.004;5.908;2023-05-08T14:04:23;21.08;;;18.92;;
42036;SDS011;30340;52.004;5.908;2023-05-08T14:06:49;22.25;;;19.88;;
42036;SDS011;30340;52.004;5.908;2023-05-08T14:09:14;19.70;;;17.67;;
42036;SDS011;30340;52.004;5.908;2023-05-08T14:11:40;18.23;;;16.25;;
42036;SDS011;30340;52.004;5.908;2023-05-08T14:14:06;25.63;;;22.92;;
42036;SDS011;30340;52.004;5.908;2023-05-08T14:16:31;18.85;;;16.92;;
42036;SDS011;30340;52.004;5.908;2023-05-08T14:18:57;17.77;;;15.63;;
42036;SDS011;30340;52.004;5.908;2023-05-08T14:21:23;20.02;;;18.02;;
42036;SDS011;30340;52.004;5.908;2023-05-08T14:23:48;21.58;;;19.27;;
42036;SDS011;30340;52.004;5.908;2023-05-08T14:26:14;17.30;;;15.55;;
42036;SDS011;30340;52.004;5.908;2023-05-08T14:28:40;21.05;;;18.80;;
42036;SDS011;30340;52.004;5.908;2023-05-08T14:31:05;18.48;;;16.58;;
42036;SDS011;30340;52.004;5.908;2023-05-08T14:33:32;20.77;;;18.38;;
42036;SDS011;30340;52.004;5.908;2023-05-08T14:35:58;16.80;;;15.07;;
42036;SDS011;30340;52.004;5.908;2023-05-08T14:38:23;20.90;;;18.80;;
42036;SDS011;30340;52.004;5.908;2023-05-08T14:40:49;19.35;;;17.25;;
42036;SDS011;30340;52.004;5.908;2023-05-08T14:43:15;16.42;;;14.73;;
42036;SDS011;30340;52.004;5.908;2023-05-08T14:45:41;22.58;;;20.27;;
42036;SDS011;30340;52.004;5.908;2023-05-08T14:48:07;17.75;;;15.95;;
42036;SDS011;30340;52.004;5.908;2023-05-08T14:50:32;17.67;;;15.80;;
42036;SDS011;30340;52.004;5.908;2023-05-08T14:52:58;18.27;;;16.30;;
42036;SDS011;30340;52.004;5.908;2023-05-08T14:55:24;13.23;;;11.93;;
42036;SDS011;30340;52.004;5.908;2023-05-08T14:57:49;18.80;;;16.77;;
42036;SDS011;30340;52.004;5.908;2023-05-08T15:00:15;17.38;;;15.52;;
42036;SDS011;30340;52.004;5.908;2023-05-08T15:02:42;17.60;;;15.80;;
42036;SDS011;30340;52.004;5.908;2023-05-08T15:05:08;21.90;;;19.55;;
42036;SDS011;30340;52.004;5.908;2023-05-08T15:07:34;18.92;;;16.80;;
42036;SDS011;30340;52.004;5.908;2023-05-08T15:10:00;17.45;;;15.65;;
42036;SDS011;30340;52.004;5.908;2023-05-08T15:12:26;20.00;;;16.77;;
42036;SDS011;30340;52.004;5.908;2023-05-08T15:14:51;18.20;;;15.73;;
42036;SDS011;30340;52.004;5.908;2023-05-08T15:17:17;22.52;;;20.08;;
42036;SDS011;30340;52.004;5.908;2023-05-08T15:19:43;18.23;;;16.30;;
42036;SDS011;30340;52.004;5.908;2023-05-08T15:22:10;18.08;;;16.10;;